createdAt,value
2018-06-04T00:01:51.948Z,8.47
2018-06-04T00:04:20.994Z,9.17
2018-06-04T00:06:50.040Z,9.03
2018-06-04T00:09:19.301Z,9.00
2018-06-04T00:11:49.325Z,11.03
2018-06-04T00:14:18.610Z,9.00
2018-06-04T00:16:47.643Z,9.90
2018-06-04T00:19:16.744Z,9.87
2018-06-04T00:21:46.141Z,9.23
2018-06-04T00:24:15.196Z,9.60
2018-06-04T00:26:44.273Z,9.33
2018-06-04T00:29:14.364Z,10.07
2018-06-04T00:31:43.205Z,8.70
2018-06-04T00:34:11.991Z,10.57
2018-06-04T00:36:41.187Z,9.47
2018-06-04T00:39:10.349Z,10.50
2018-06-04T00:41:39.804Z,9.37
2018-06-04T00:44:08.881Z,8.70
2018-06-04T00:46:37.987Z,10.00
2018-06-04T00:49:07.186Z,8.67
2018-06-04T00:51:36.236Z,8.80
2018-06-04T00:54:05.472Z,9.10
2018-06-04T00:56:35.272Z,9.20
2018-06-04T00:59:04.086Z,9.37
2018-06-04T01:01:33.032Z,9.60
2018-06-04T01:04:02.249Z,10.17
2018-06-04T01:06:31.327Z,9.07
2018-06-04T01:09:00.129Z,8.80
2018-06-04T01:11:28.991Z,9.70
2018-06-04T01:13:57.734Z,8.90
2018-06-04T01:16:28.004Z,8.53
2018-06-04T01:18:56.980Z,9.53
2018-06-04T01:21:26.087Z,10.30
2018-06-04T01:23:57.892Z,9.73
2018-06-04T01:26:26.942Z,9.13
2018-06-04T01:28:55.894Z,8.50
2018-06-04T01:31:25.092Z,8.33
2018-06-04T01:33:54.105Z,10.10
2018-06-04T01:36:23.287Z,7.87
2018-06-04T01:38:53.175Z,11.40
2018-06-04T01:41:22.322Z,8.77
2018-06-04T01:43:51.422Z,8.97
2018-06-04T01:46:20.648Z,9.97
2018-06-04T01:48:49.429Z,10.83
2018-06-04T01:51:18.549Z,12.83
2018-06-04T01:53:48.168Z,11.47
2018-06-04T01:56:17.104Z,9.10
2018-06-04T01:58:45.796Z,9.23
2018-06-04T02:01:14.869Z,10.47
2018-06-04T02:03:43.867Z,8.60
2018-06-04T02:06:13.788Z,9.23
2018-06-04T02:08:42.986Z,9.77
2018-06-04T02:11:13.864Z,9.50
2018-06-04T02:13:42.962Z,9.17
2018-06-04T02:16:11.941Z,11.27
2018-06-04T02:18:41.033Z,9.80
2018-06-04T02:21:10.629Z,10.00
2018-06-04T02:23:39.839Z,8.93
2018-06-04T02:26:08.884Z,8.80
2018-06-04T02:28:37.997Z,8.40
2018-06-04T02:31:08.365Z,8.27
2018-06-04T02:33:37.474Z,8.03
2018-06-04T02:36:07.002Z,9.00
2018-06-04T02:38:36.083Z,9.50
2018-06-04T02:41:06.243Z,8.40
2018-06-04T02:43:36.043Z,9.83
2018-06-04T02:46:05.468Z,9.30
2018-06-04T02:48:35.071Z,9.80
2018-06-04T02:51:04.191Z,9.60
2018-06-04T02:53:33.420Z,8.67
2018-06-04T02:56:02.494Z,8.80
2018-06-04T02:58:31.304Z,10.73
2018-06-04T03:01:00.137Z,9.13
2018-06-04T03:03:30.829Z,10.20
2018-06-04T03:05:59.830Z,8.73
2018-06-04T03:08:28.904Z,9.20
2018-06-04T03:10:57.921Z,8.63
2018-06-04T03:13:28.431Z,8.00
2018-06-04T03:15:57.442Z,9.13
2018-06-04T03:18:26.551Z,8.80
2018-06-04T03:20:55.768Z,9.33
2018-06-04T03:23:26.224Z,9.53
2018-06-04T03:25:55.491Z,8.73
2018-06-04T03:28:24.562Z,9.10
2018-06-04T03:30:53.684Z,8.30
2018-06-04T03:33:23.362Z,8.40
2018-06-04T03:35:52.459Z,8.83
2018-06-04T03:38:21.589Z,9.30
2018-06-04T03:40:50.495Z,8.60
2018-06-04T03:43:26.800Z,8.13
2018-06-04T03:45:55.842Z,8.53
2018-06-04T03:48:25.019Z,8.37
2018-06-04T03:50:54.842Z,8.53
2018-06-04T03:53:24.982Z,9.60
2018-06-04T03:55:55.103Z,8.83
2018-06-04T03:58:25.073Z,9.77
2018-06-04T04:00:54.184Z,10.47
2018-06-04T04:03:23.231Z,14.93
2018-06-04T04:05:52.394Z,12.80
2018-06-04T04:08:21.521Z,13.10
2018-06-04T04:10:50.608Z,10.53
2018-06-04T04:13:19.454Z,8.93
2018-06-04T04:15:48.332Z,9.87
2018-06-04T04:18:17.352Z,10.03
2018-06-04T04:20:46.307Z,9.60
2018-06-04T04:23:15.999Z,9.80
2018-06-04T04:25:45.137Z,10.50
2018-06-04T04:28:13.924Z,8.17
2018-06-04T04:30:42.594Z,8.53
2018-06-04T04:33:12.058Z,8.90
2018-06-04T04:35:41.078Z,9.60
2018-06-04T04:38:10.107Z,8.50
2018-06-04T04:40:39.121Z,8.50
2018-06-04T04:43:08.290Z,10.13
2018-06-04T04:45:38.634Z,10.50
2018-06-04T04:48:07.680Z,9.07
2018-06-04T04:50:36.619Z,8.37
2018-06-04T04:53:05.828Z,9.27
2018-06-04T04:55:35.094Z,8.20
2018-06-04T04:58:04.100Z,8.30
2018-06-04T05:00:33.464Z,8.40
2018-06-04T05:03:02.500Z,8.60
2018-06-04T05:05:31.586Z,8.50
2018-06-04T05:08:00.700Z,8.13
2018-06-04T05:10:30.011Z,9.43
2018-06-04T05:12:59.113Z,8.70
2018-06-04T05:15:28.201Z,9.27
2018-06-04T05:17:57.289Z,9.30
2018-06-04T05:20:25.977Z,8.93
2018-06-04T05:22:55.088Z,9.50
2018-06-04T05:25:24.131Z,9.70
2018-06-04T05:27:53.250Z,9.07
2018-06-04T05:30:22.411Z,8.70
2018-06-04T05:32:51.428Z,8.63
2018-06-04T05:35:20.579Z,8.10
2018-06-04T05:37:49.624Z,9.00
2018-06-04T05:40:19.547Z,8.63
2018-06-04T05:42:48.628Z,10.87
2018-06-04T05:45:17.851Z,10.57
2018-06-04T05:47:46.945Z,10.80
2018-06-04T05:50:16.815Z,12.60
2018-06-04T05:52:45.957Z,11.20
2018-06-04T05:55:14.879Z,12.00
2018-06-04T05:57:44.734Z,11.60
2018-06-04T06:00:14.279Z,10.90
2018-06-04T06:02:44.087Z,11.50
2018-06-04T06:05:14.616Z,11.43
2018-06-04T06:07:43.765Z,13.17
2018-06-04T06:10:16.331Z,12.33
2018-06-04T06:12:45.392Z,11.70
2018-06-04T06:15:15.981Z,12.20
2018-06-04T06:17:46.005Z,12.47
2018-06-04T06:20:25.989Z,10.80
2018-06-04T06:22:55.151Z,10.00
2018-06-04T06:25:29.825Z,11.23
2018-06-04T06:27:59.706Z,12.27
2018-06-04T06:30:29.127Z,9.57
2018-06-04T06:32:58.372Z,9.73
2018-06-04T06:35:28.715Z,10.30
2018-06-04T06:38:01.299Z,11.57
2018-06-04T06:40:33.021Z,10.40
2018-06-04T06:43:03.694Z,10.00
2018-06-04T06:45:34.797Z,9.80
2018-06-04T06:48:04.038Z,10.27
2018-06-04T06:50:34.561Z,9.33
2018-06-04T06:53:04.031Z,9.03
2018-06-04T06:55:36.100Z,9.30
2018-06-04T06:58:07.523Z,8.97
2018-06-04T07:00:38.579Z,9.37
2018-06-04T07:03:30.281Z,10.60
2018-06-04T07:06:12.641Z,9.40
2018-06-04T07:11:29.698Z,11.13
2018-06-04T07:14:02.304Z,9.03
2018-06-04T07:16:32.457Z,8.83
2018-06-04T07:19:06.654Z,9.60
2018-06-04T07:21:39.165Z,9.20
2018-06-04T07:24:10.497Z,9.00
2018-06-04T07:26:40.631Z,9.20
2018-06-04T07:29:11.032Z,8.63
2018-06-04T07:31:40.242Z,9.97
2018-06-04T07:34:13.204Z,8.50
2018-06-04T07:36:52.853Z,8.33
2018-06-04T07:39:23.135Z,9.83
2018-06-04T07:41:52.876Z,8.97
2018-06-04T07:44:23.102Z,9.60
2018-06-04T07:46:54.633Z,10.03
2018-06-04T07:49:26.055Z,10.03
2018-06-04T07:51:55.314Z,8.73
2018-06-04T07:54:40.747Z,7.77
2018-06-04T07:57:16.131Z,9.43
2018-06-04T07:59:47.051Z,9.43
2018-06-04T08:02:16.537Z,10.63
2018-06-04T08:04:47.600Z,9.47
2018-06-04T08:07:29.482Z,9.20
2018-06-04T08:09:59.093Z,9.47
2018-06-04T08:12:29.176Z,8.30
2018-06-04T08:14:59.841Z,9.10
2018-06-04T08:18:54.185Z,9.97
2018-06-04T08:21:29.479Z,9.10
2018-06-04T08:24:10.482Z,10.40
2018-06-04T08:41:55.348Z,9.10
2018-06-04T08:44:54.503Z,9.17
2018-06-04T08:47:40.619Z,9.27
2018-06-04T08:50:36.376Z,9.83
2018-06-04T08:53:16.562Z,10.40
2018-06-04T08:55:57.281Z,9.53
2018-06-04T08:58:42.743Z,10.70
2018-06-04T09:01:18.577Z,10.17
2018-06-04T09:03:55.491Z,10.50
2018-06-04T09:06:36.066Z,9.03
2018-06-04T09:20:07.280Z,11.30
2018-06-04T09:22:55.380Z,9.43
2018-06-04T09:25:54.391Z,9.30
2018-06-04T09:30:00.288Z,8.90
2018-06-04T09:32:39.499Z,8.57
2018-06-04T09:35:27.188Z,9.37
2018-06-04T09:40:55.796Z,9.47
2018-06-04T09:43:47.680Z,9.20
2018-06-04T09:49:26.104Z,9.17
2018-06-04T09:56:35.284Z,8.63
2018-06-04T09:59:13.805Z,9.40
2018-06-04T10:01:56.974Z,8.33
2018-06-04T10:04:39.708Z,8.70
2018-06-04T10:07:28.675Z,8.93
2018-06-04T10:10:05.309Z,8.13
2018-06-04T10:13:01.992Z,10.00
2018-06-04T10:16:12.400Z,12.17
2018-06-04T10:19:14.306Z,10.17
2018-06-04T10:30:10.724Z,9.80
2018-06-04T10:36:27.267Z,9.57
2018-06-04T10:39:08.309Z,8.57
2018-06-04T10:42:47.561Z,12.70
2018-06-04T10:45:32.613Z,9.50
2018-06-04T10:58:37.947Z,13.40
2018-06-04T11:18:09.023Z,8.13
2018-06-04T11:27:18.121Z,9.60
2018-06-04T11:30:27.400Z,8.50
2018-06-04T11:41:24.365Z,7.13
2018-06-04T11:47:48.072Z,7.47
2018-06-04T12:33:43.925Z,6.97
2018-06-04T12:59:22.955Z,7.17
2018-06-04T13:09:35.693Z,6.47
2018-06-04T13:12:39.161Z,7.80
2018-06-04T13:26:36.949Z,7.60
2018-06-04T13:30:20.057Z,7.27
2018-06-04T14:10:21.739Z,7.37
2018-06-04T14:13:12.420Z,6.17
2018-06-04T14:16:23.233Z,6.70
2018-06-04T14:24:25.015Z,5.53
2018-06-04T14:30:56.116Z,6.03
2018-06-04T14:34:10.704Z,6.40
2018-06-04T14:36:57.661Z,6.30
2018-06-04T14:57:56.624Z,7.03
2018-06-04T15:07:05.754Z,7.70
2018-06-04T15:14:17.506Z,7.67
2018-06-04T15:42:02.666Z,6.43
2018-06-04T15:47:40.812Z,6.60
2018-06-04T15:51:04.734Z,8.07
2018-06-04T15:54:03.216Z,6.50
2018-06-04T15:58:11.957Z,7.50
2018-06-04T16:13:19.195Z,6.83
2018-06-04T16:17:55.557Z,8.40
2018-06-04T16:30:15.603Z,7.20
2018-06-04T16:32:50.353Z,6.57
2018-06-04T16:39:10.761Z,7.90
2018-06-04T16:44:42.364Z,8.00
2018-06-04T16:48:30.600Z,7.73
2018-06-04T16:56:26.730Z,6.53
2018-06-04T16:59:05.561Z,7.57
2018-06-04T17:01:43.140Z,8.30
2018-06-04T17:11:19.331Z,9.33
2018-06-04T17:17:17.964Z,8.33
2018-06-04T17:23:25.774Z,9.67
2018-06-04T17:27:43.763Z,8.90
2018-06-04T17:32:38.369Z,11.00
2018-06-04T17:35:15.319Z,9.17
2018-06-04T17:37:49.025Z,9.90
2018-06-04T17:40:20.206Z,10.97
2018-06-04T17:45:54.640Z,8.43
2018-06-04T17:52:37.623Z,10.47
2018-06-04T17:55:48.518Z,10.80
2018-06-04T17:58:23.460Z,9.40
2018-06-04T18:01:12.794Z,10.40
2018-06-04T18:03:45.421Z,9.20
2018-06-04T18:11:49.623Z,9.50
2018-06-04T18:14:24.839Z,10.60
2018-06-04T18:17:05.397Z,10.10
2018-06-04T18:19:49.354Z,9.20
2018-06-04T18:22:24.206Z,13.77
2018-06-04T18:25:02.604Z,10.43
2018-06-04T18:27:34.929Z,9.27
2018-06-04T18:30:13.659Z,8.63
2018-06-04T18:32:47.861Z,9.30
2018-06-04T18:35:26.875Z,8.37
2018-06-04T18:37:58.832Z,9.20
2018-06-04T18:43:17.438Z,9.67
2018-06-04T18:45:48.620Z,10.10
2018-06-04T18:48:19.322Z,8.60
2018-06-04T18:50:50.648Z,10.87
2018-06-04T18:53:28.374Z,10.97
2018-06-04T18:56:01.038Z,9.83
2018-06-04T18:58:33.047Z,9.93
2018-06-04T19:01:06.060Z,9.63
2018-06-04T19:03:40.073Z,10.10
2018-06-04T19:06:10.789Z,9.57
2018-06-04T19:08:42.185Z,9.97
2018-06-04T19:11:15.361Z,10.13
2018-06-04T19:13:45.774Z,9.17
2018-06-04T19:16:16.788Z,9.73
2018-06-04T19:18:46.664Z,9.87
2018-06-04T19:21:15.964Z,9.37
2018-06-04T19:23:46.846Z,10.27
2018-06-04T19:26:17.943Z,10.20
2018-06-04T19:28:49.621Z,9.50
2018-06-04T19:31:18.960Z,10.07
2018-06-04T19:33:49.343Z,9.30
2018-06-04T19:36:18.770Z,9.60
2018-06-04T19:38:48.909Z,9.10
2018-06-04T19:41:19.285Z,10.20
2018-06-04T19:43:49.234Z,9.97
2018-06-04T19:46:19.445Z,9.57
2018-06-04T19:48:51.144Z,9.10
2018-06-04T19:51:21.896Z,10.37
2018-06-04T19:53:51.345Z,9.07
2018-06-04T19:56:21.844Z,10.40
2018-06-04T19:58:57.840Z,9.63
2018-06-04T20:01:30.302Z,10.40
2018-06-04T20:04:04.081Z,10.60
2018-06-04T20:06:37.225Z,9.47
2018-06-04T20:09:12.230Z,10.13
2018-06-04T20:11:42.646Z,10.63
2018-06-04T20:14:17.125Z,10.33
2018-06-04T20:16:47.803Z,10.90
2018-06-04T20:19:22.117Z,9.60
2018-06-04T20:21:53.386Z,9.37
2018-06-04T20:24:29.572Z,10.30
2018-06-04T20:27:13.642Z,9.80
2018-06-04T20:29:46.965Z,10.97
2018-06-04T20:32:20.804Z,10.43
2018-06-04T20:34:51.208Z,10.60
2018-06-04T20:37:22.363Z,11.30
2018-06-04T20:39:52.495Z,10.23
2018-06-04T20:42:23.318Z,10.50
2018-06-04T20:44:52.719Z,10.87
2018-06-04T20:47:22.710Z,9.90
2018-06-04T20:49:54.407Z,9.83
2018-06-04T20:52:25.240Z,10.67
2018-06-04T20:54:55.105Z,10.63
2018-06-04T20:57:26.344Z,11.43
2018-06-04T20:59:56.089Z,11.40
2018-06-04T21:02:25.253Z,10.60
2018-06-04T21:04:57.411Z,10.90
2018-06-04T21:07:27.325Z,10.60
2018-06-04T21:10:01.369Z,10.90
2018-06-04T21:12:31.020Z,10.33
2018-06-04T21:15:03.773Z,11.00
2018-06-04T21:17:36.235Z,11.20
2018-06-04T21:20:06.474Z,12.80
2018-06-04T21:22:41.944Z,11.73
2018-06-04T21:25:14.093Z,11.47
2018-06-04T21:27:46.879Z,10.33
2018-06-04T21:30:16.526Z,8.83
2018-06-04T21:32:46.116Z,10.70
2018-06-04T21:35:16.050Z,11.00
2018-06-04T21:37:47.106Z,10.13
2018-06-04T21:40:17.966Z,10.90
2018-06-04T21:42:47.189Z,11.23
2018-06-04T21:45:18.115Z,9.87
2018-06-04T21:47:49.144Z,11.00
2018-06-04T21:50:18.728Z,10.47
2018-06-04T21:52:48.170Z,10.07
2018-06-04T21:55:17.709Z,9.77
2018-06-04T21:57:47.761Z,10.70
2018-06-04T22:00:16.764Z,9.20
2018-06-04T22:02:46.570Z,10.93
2018-06-04T22:05:15.397Z,12.13
2018-06-04T22:07:45.125Z,9.37
2018-06-04T22:10:14.307Z,11.47
2018-06-04T22:12:44.461Z,10.00
2018-06-04T22:15:14.134Z,9.90
2018-06-04T22:17:43.413Z,11.23
2018-06-04T22:20:13.618Z,10.97
2018-06-04T22:22:42.880Z,9.83
2018-06-04T22:25:12.249Z,9.60
2018-06-04T22:27:41.295Z,10.07
2018-06-04T22:30:11.612Z,10.10
2018-06-04T22:32:41.856Z,10.37
2018-06-04T22:35:11.481Z,9.00
2018-06-04T22:37:40.574Z,9.90
2018-06-04T22:40:09.570Z,10.10
2018-06-04T22:42:39.240Z,10.40
2018-06-04T22:45:09.029Z,10.93
2018-06-04T22:47:38.263Z,10.33
2018-06-04T22:50:07.682Z,10.30
2018-06-04T22:52:37.687Z,9.47
2018-06-04T22:55:07.423Z,9.70
2018-06-04T22:57:36.356Z,9.40
2018-06-04T23:00:05.816Z,9.43
2018-06-04T23:02:35.228Z,9.90
2018-06-04T23:05:04.138Z,10.23
2018-06-04T23:07:34.186Z,9.97
2018-06-04T23:10:03.649Z,9.10
2018-06-04T23:12:32.699Z,10.07
2018-06-04T23:15:01.771Z,10.00
2018-06-04T23:17:30.555Z,8.67
2018-06-04T23:20:00.037Z,10.50
2018-06-04T23:22:29.953Z,9.40
2018-06-04T23:24:58.972Z,8.60
2018-06-04T23:27:27.768Z,8.27
2018-06-04T23:29:56.880Z,9.50
2018-06-04T23:32:26.317Z,9.33
2018-06-04T23:34:56.666Z,9.20
2018-06-04T23:37:25.477Z,9.80
2018-06-04T23:39:54.217Z,9.07
2018-06-04T23:42:29.386Z,10.50
2018-06-04T23:44:58.651Z,9.00
2018-06-04T23:47:28.399Z,9.00
2018-06-04T23:49:57.381Z,10.57
2018-06-04T23:52:26.157Z,9.50
2018-06-04T23:54:55.322Z,8.97
2018-06-04T23:57:24.467Z,8.77
2018-06-04T23:59:53.791Z,8.80
